Time,TemperatureF,DewpointF,PressureIn,WindDirection,WindDirectionDegrees,WindSpeedMPH,WindSpeedGustMPH,Humidity,HourlyPrecipIn,Conditions,Clouds,dailyrainin,SoftwareType,DateUTC
2013-02-01 00:06:00,31.4,20.0,30.09,West,261,0.0,-999.0,63,-99.99,,,0.00,weatherlink.com 1.10,2013-02-01 05:06:00,
2013-02-01 00:21:00,31.1,19.0,30.08,West,261,0.0,-999.0,61,-99.99,,,0.00,weatherlink.com 1.10,2013-02-01 05:21:00,
2013-02-01 00:37:00,31.0,20.0,30.07,West,261,0.0,-999.0,63,-99.99,,,0.00,weatherlink.com 1.10,2013-02-01 05:37:00,
2013-02-01 00:51:00,31.0,20.0,30.06,West,260,0.0,-999.0,65,-99.99,,,0.00,weatherlink.com 1.10,2013-02-01 05:51:00,
2013-02-01 01:06:00,31.4,21.0,30.06,SW,226,0.0,-999.0,66,-99.99,,,0.00,weatherlink.com 1.10,2013-02-01 06:06:00,
2013-02-01 01:22:00,31.9,21.0,30.07,SW,234,0.0,-999.0,65,-99.99,,,0.00,weatherlink.com 1.10,2013-02-01 06:22:00,
2013-02-01 01:37:00,32.3,21.0,30.05,SW,233,0.0,-999.0,64,-99.99,,,0.00,weatherlink.com 1.10,2013-02-01 06:37:00,
2013-02-01 01:52:00,32.7,21.0,30.04,SW,233,0.0,-999.0,63,-99.99,,,0.00,weatherlink.com 1.10,2013-02-01 06:52:00,
2013-02-01 02:09:00,32.8,22.0,30.02,SW,233,0.0,-999.0,64,-99.99,,,0.00,weatherlink.com 1.10,2013-02-01 07:09:00,
2013-02-01 02:22:00,33.0,22.0,30.03,SW,233,0.0,-999.0,65,-99.99,,,0.00,weatherlink.com 1.10,2013-02-01 07:22:00,
2013-02-01 02:37:00,33.3,22.0,30.02,SW,228,2.0,-999.0,64,-99.99,,,0.00,weatherlink.com 1.10,2013-02-01 07:37:00,
2013-02-01 02:52:00,33.8,23.0,30.02,SW,232,4.0,-999.0,64,-99.99,,,0.00,weatherlink.com 1.10,2013-02-01 07:52:00,
2013-02-01 03:07:00,34.4,23.0,30.01,WSW,244,0.0,-999.0,64,-99.99,,,0.00,weatherlink.com 1.10,2013-02-01 08:07:00,
2013-02-01 03:22:00,34.9,23.0,30.00,SW,218,1.0,-999.0,63,-99.99,,,0.00,weatherlink.com 1.10,2013-02-01 08:22:00,
2013-02-01 03:38:00,35.1,23.0,30.00,SW,230,2.0,-999.0,62,-99.99,,,0.00,weatherlink.com 1.10,2013-02-01 08:38:00,
2013-02-01 03:53:00,35.3,23.0,30.00,SW,217,0.0,-999.0,62,-99.99,,,0.00,weatherlink.com 1.10,2013-02-01 08:53:00,
2013-02-01 04:08:00,35.5,23.0,30.00,WSW,254,2.0,-999.0,61,-99.99,,,0.00,weatherlink.com 1.10,2013-02-01 09:08:00,
2013-02-01 04:23:00,35.7,23.0,30.01,WSW,250,1.0,-999.0,60,-99.99,,,0.00,weatherlink.com 1.10,2013-02-01 09:23:00,
2013-02-01 04:38:00,35.9,23.0,30.01,SSW,207,0.0,-999.0,61,-99.99,,,0.00,weatherlink.com 1.10,2013-02-01 09:38:00,
2013-02-01 04:53:00,36.1,23.0,30.02,WSW,242,0.0,-999.0,60,-99.99,,,0.00,weatherlink.com 1.10,2013-02-01 09:53:00,
2013-02-01 05:08:00,36.0,24.0,30.03,WSW,249,2.0,-999.0,61,-99.99,,,0.00,weatherlink.com 1.10,2013-02-01 10:08:00,
2013-02-01 05:23:00,35.8,23.0,30.05,West,265,1.0,-999.0,60,-99.99,,,0.00,weatherlink.com 1.10,2013-02-01 10:23:00,
2013-02-01 05:38:00,36.1,24.0,30.05,West,263,0.0,-999.0,61,-99.99,,,0.00,weatherlink.com 1.10,2013-02-01 10:38:00,
2013-02-01 05:53:00,36.7,24.0,30.07,NNW,334,1.0,-999.0,61,-99.99,,,0.00,weatherlink.com 1.10,2013-02-01 10:53:00,
2013-02-01 06:08:00,37.3,24.0,30.09,NNW,336,6.0,-999.0,58,-99.99,,,0.00,weatherlink.com 1.10,2013-02-01 11:08:00,
2013-02-01 06:24:00,36.5,20.0,30.12,NW,323,8.0,-999.0,51,-99.99,,,0.00,weatherlink.com 1.10,2013-02-01 11:24:00,
2013-02-01 06:39:00,35.0,15.0,30.15,NW,317,10.0,-999.0,44,-99.99,,,0.00,weatherlink.com 1.10,2013-02-01 11:39:00,
2013-02-01 06:54:00,33.5,10.0,30.18,NW,325,16.0,-999.0,37,-99.99,,,0.00,weatherlink.com 1.10,2013-02-01 11:54:00,
2013-02-01 07:09:00,32.6,7.0,30.19,NW,326,22.0,-999.0,34,-99.99,,,0.00,weatherlink.com 1.10,2013-02-01 12:09:00,
2013-02-01 07:24:00,31.8,8.0,30.21,WSW,257,2.0,-999.0,37,-99.99,,,0.00,weatherlink.com 1.10,2013-02-01 12:24:00,
2013-02-01 07:40:00,31.0,6.0,30.22,NW,322,7.0,-999.0,35,-99.99,,,0.00,weatherlink.com 1.10,2013-02-01 12:40:00,
2013-02-01 07:55:00,30.3,6.0,30.23,NNW,346,4.0,-999.0,36,-99.99,,,0.00,weatherlink.com 1.10,2013-02-01 12:55:00,
2013-02-01 08:09:00,29.6,4.0,30.26,NNW,327,11.0,-999.0,34,-99.99,,,0.00,weatherlink.com 1.10,2013-02-01 13:09:00,
2013-02-01 08:25:00,29.0,3.0,30.27,North,9,11.0,-999.0,33,-99.99,,,0.00,weatherlink.com 1.10,2013-02-01 13:25:00,
2013-02-01 08:40:00,28.5,3.0,30.29,NNW,337,8.0,-999.0,34,-99.99,,,0.00,weatherlink.com 1.10,2013-02-01 13:40:00,
2013-02-01 08:55:00,28.4,2.0,30.30,North,353,3.0,-999.0,32,-99.99,,,0.00,weatherlink.com 1.10,2013-02-01 13:55:00,
2013-02-01 09:10:00,28.1,3.0,30.31,NNW,333,7.0,-999.0,34,-99.99,,,0.00,weatherlink.com 1.10,2013-02-01 14:10:00,
2013-02-01 09:25:00,27.8,3.0,30.31,West,277,8.0,-999.0,35,-99.99,,,0.00,weatherlink.com 1.10,2013-02-01 14:25:00,
2013-02-01 09:40:00,27.6,3.0,30.31,NW,326,11.0,-999.0,34,-99.99,,,0.00,weatherlink.com 1.10,2013-02-01 14:40:00,
2013-02-01 09:56:00,27.8,3.0,30.33,WNW,290,7.0,-999.0,35,-99.99,,,0.00,weatherlink.com 1.10,2013-02-01 14:56:00,
2013-02-01 10:10:00,28.1,2.0,30.34,NNW,333,3.0,-999.0,33,-99.99,,,0.00,weatherlink.com 1.10,2013-02-01 15:10:00,
2013-02-01 10:26:00,28.7,3.0,30.34,NNW,348,7.0,-999.0,33,-99.99,,,0.00,weatherlink.com 1.10,2013-02-01 15:26:00,
2013-02-01 10:41:00,29.0,2.0,30.35,NNW,342,5.0,-999.0,31,-99.99,,,0.00,weatherlink.com 1.10,2013-02-01 15:41:00,
2013-02-01 10:56:00,29.1,1.0,30.36,NNE,15,7.0,-999.0,30,-99.99,,,0.00,weatherlink.com 1.10,2013-02-01 15:56:00,
2013-02-01 11:11:00,29.3,0.0,30.37,WNW,300,4.0,-999.0,28,-99.99,,,0.00,weatherlink.com 1.10,2013-02-01 16:11:00,
2013-02-01 11:26:00,29.9,0.0,30.37,NNW,329,3.0,-999.0,28,-99.99,,,0.00,weatherlink.com 1.10,2013-02-01 16:26:00,
2013-02-01 11:41:00,30.5,0.0,30.38,NNW,342,7.0,-999.0,27,-99.99,,,0.00,weatherlink.com 1.10,2013-02-01 16:41:00,
2013-02-01 11:56:00,30.6,2.0,30.38,NNW,346,5.0,-999.0,29,-99.99,,,0.00,weatherlink.com 1.10,2013-02-01 16:56:00,
2013-02-01 12:11:00,31.1,-1.0,30.38,WNW,301,6.0,-999.0,25,-99.99,,,0.00,weatherlink.com 1.10,2013-02-01 17:11:00,
2013-02-01 12:26:00,31.2,0.0,30.37,WSW,251,7.0,-999.0,26,-99.99,,,0.00,weatherlink.com 1.10,2013-02-01 17:26:00,
2013-02-01 12:41:00,31.1,-2.0,30.38,WNW,302,6.0,-999.0,24,-99.99,,,0.00,weatherlink.com 1.10,2013-02-01 17:41:00,
2013-02-01 12:56:00,31.0,-1.0,30.37,NW,319,2.0,-999.0,25,-99.99,,,0.00,weatherlink.com 1.10,2013-02-01 17:56:00,
2013-02-01 13:12:00,31.3,-2.0,30.37,NW,316,6.0,-999.0,24,-99.99,,,0.00,weatherlink.com 1.10,2013-02-01 18:12:00,
2013-02-01 13:26:00,31.3,-2.0,30.37,NNW,348,5.0,-999.0,24,-99.99,,,0.00,weatherlink.com 1.10,2013-02-01 18:26:00,
2013-02-01 13:42:00,32.5,-1.0,30.37,NNW,345,4.0,-999.0,24,-99.99,,,0.00,weatherlink.com 1.10,2013-02-01 18:42:00,
2013-02-01 13:57:00,32.1,-1.0,30.38,NW,322,5.0,-999.0,24,-99.99,,,0.00,weatherlink.com 1.10,2013-02-01 18:57:00,
2013-02-01 14:12:00,32.5,0.0,30.38,NW,310,4.0,-999.0,25,-99.99,,,0.00,weatherlink.com 1.10,2013-02-01 19:12:00,
2013-02-01 14:27:00,33.1,0.0,30.37,NNW,328,11.0,-999.0,24,-99.99,,,0.00,weatherlink.com 1.10,2013-02-01 19:27:00,
2013-02-01 14:42:00,32.8,-1.0,30.37,NNW,339,3.0,-999.0,24,-99.99,,,0.00,weatherlink.com 1.10,2013-02-01 19:42:00,
2013-02-01 14:57:00,33.3,-1.0,30.37,North,9,8.0,-999.0,23,-99.99,,,0.00,weatherlink.com 1.10,2013-02-01 19:57:00,
2013-02-01 15:12:00,33.7,0.0,30.38,WNW,303,3.0,-999.0,24,-99.99,,,0.00,weatherlink.com 1.10,2013-02-01 20:12:00,
2013-02-01 15:27:00,33.3,2.0,30.38,NE,39,1.0,-999.0,26,-99.99,,,0.00,weatherlink.com 1.10,2013-02-01 20:27:00,
2013-02-01 15:42:00,33.5,0.0,30.37,NW,309,2.0,-999.0,24,-99.99,,,0.00,weatherlink.com 1.10,2013-02-01 20:42:00,
2013-02-01 15:57:00,33.7,0.0,30.37,North,350,1.0,-999.0,24,-99.99,,,0.00,weatherlink.com 1.10,2013-02-01 20:57:00,
2013-02-01 16:14:00,33.4,1.0,30.38,WNW,292,5.0,-999.0,25,-99.99,,,0.00,weatherlink.com 1.10,2013-02-01 21:14:00,
2013-02-01 16:28:00,33.0,1.0,30.39,NNW,346,1.0,-999.0,25,-99.99,,,0.00,weatherlink.com 1.10,2013-02-01 21:28:00,
2013-02-01 16:43:00,32.5,3.0,30.39,NW,308,2.0,-999.0,28,-99.99,,,0.00,weatherlink.com 1.10,2013-02-01 21:43:00,
2013-02-01 16:58:00,32.4,2.0,30.39,NNE,13,0.0,-999.0,27,-99.99,,,0.00,weatherlink.com 1.10,2013-02-01 21:58:00,
2013-02-01 17:13:00,32.2,3.0,30.39,North,1,1.0,-999.0,29,-99.99,,,0.00,weatherlink.com 1.10,2013-02-01 22:13:00,
2013-02-01 17:28:00,31.7,3.0,30.40,NE,52,1.0,-999.0,30,-99.99,,,0.00,weatherlink.com 1.10,2013-02-01 22:28:00,
2013-02-01 17:43:00,31.2,3.0,30.41,NNW,344,1.0,-999.0,30,-99.99,,,0.00,weatherlink.com 1.10,2013-02-01 22:43:00,
2013-02-01 17:58:00,30.5,4.0,30.40,North,3,0.0,-999.0,32,-99.99,,,0.00,weatherlink.com 1.10,2013-02-01 22:58:00,
2013-02-01 18:13:00,29.9,4.0,30.41,NW,312,1.0,-999.0,33,-99.99,,,0.00,weatherlink.com 1.10,2013-02-01 23:13:00,
2013-02-01 18:28:00,29.3,3.0,30.42,West,268,1.0,-999.0,32,-99.99,,,0.00,weatherlink.com 1.10,2013-02-01 23:28:00,
2013-02-01 18:43:00,28.3,3.0,30.42,South,186,1.0,-999.0,34,-99.99,,,0.00,weatherlink.com 1.10,2013-02-01 23:43:00,
2013-02-01 18:58:00,27.9,5.0,30.43,NW,326,0.0,-999.0,37,-99.99,,,0.00,weatherlink.com 1.10,2013-02-01 23:58:00,
2013-02-01 19:14:00,27.7,5.0,30.43,NW,326,0.0,-999.0,38,-99.99,,,0.00,weatherlink.com 1.10,2013-02-02 00:14:00,
2013-02-01 19:29:00,27.5,4.0,30.44,NNW,327,0.0,-999.0,37,-99.99,,,0.00,weatherlink.com 1.10,2013-02-02 00:29:00,
2013-02-01 19:44:00,27.2,4.0,30.44,NNW,342,0.0,-999.0,37,-99.99,,,0.00,weatherlink.com 1.10,2013-02-02 00:44:00,
2013-02-01 19:59:00,27.0,4.0,30.45,NNW,341,0.0,-999.0,37,-99.99,,,0.00,weatherlink.com 1.10,2013-02-02 00:59:00,
2013-02-01 20:14:00,26.8,4.0,30.46,NE,36,0.0,-999.0,37,-99.99,,,0.00,weatherlink.com 1.10,2013-02-02 01:14:00,
2013-02-01 20:29:00,26.6,4.0,30.46,NNE,13,0.0,-999.0,38,-99.99,,,0.00,weatherlink.com 1.10,2013-02-02 01:29:00,
2013-02-01 20:44:00,26.3,5.0,30.46,ENE,61,0.0,-999.0,41,-99.99,,,0.00,weatherlink.com 1.10,2013-02-02 01:44:00,
2013-02-01 20:59:00,26.0,5.0,30.46,NW,322,1.0,-999.0,40,-99.99,,,0.00,weatherlink.com 1.10,2013-02-02 01:59:00,
2013-02-01 21:14:00,25.8,5.0,30.46,NW,313,1.0,-999.0,42,-99.99,,,0.00,weatherlink.com 1.10,2013-02-02 02:14:00,
2013-02-01 21:29:00,25.5,6.0,30.46,ENE,57,2.0,-999.0,43,-99.99,,,0.00,weatherlink.com 1.10,2013-02-02 02:29:00,
2013-02-01 21:45:00,25.2,5.0,30.45,NE,34,1.0,-999.0,42,-99.99,,,0.00,weatherlink.com 1.10,2013-02-02 02:45:00,
2013-02-01 21:59:00,25.1,5.0,30.46,SSE,166,0.0,-999.0,42,-99.99,,,0.00,weatherlink.com 1.10,2013-02-02 02:59:00,
2013-02-01 22:15:00,25.0,5.0,30.46,WNW,303,0.0,-999.0,42,-99.99,,,0.00,weatherlink.com 1.10,2013-02-02 03:15:00,
2013-02-01 22:30:00,25.1,4.0,30.46,North,352,0.0,-999.0,40,-99.99,,,0.00,weatherlink.com 1.10,2013-02-02 03:30:00,
2013-02-01 22:45:00,25.0,5.0,30.46,WNW,296,0.0,-999.0,43,-99.99,,,0.00,weatherlink.com 1.10,2013-02-02 03:45:00,
2013-02-01 23:00:00,24.5,6.0,30.46,SSW,210,0.0,-999.0,45,-99.99,,,0.00,weatherlink.com 1.10,2013-02-02 04:00:00,
2013-02-01 23:15:00,24.4,5.0,30.47,ENE,72,1.0,-999.0,44,-99.99,,,0.00,weatherlink.com 1.10,2013-02-02 04:15:00,
2013-02-01 23:30:00,24.4,6.0,30.47,ENE,76,0.0,-999.0,46,-99.99,,,0.00,weatherlink.com 1.10,2013-02-02 04:30:00,
2013-02-01 23:45:00,24.2,7.0,30.47,ENE,76,0.0,-999.0,47,-99.99,,,0.00,weatherlink.com 1.10,2013-02-02 04:45:00,